Time;durP1;ratioP1;P1;durP2;ratioP2;P2;SDS_P1;SDS_P2;PMS_P1;PMS_P2;Temp;Humidity;BMP_temperature;BMP_pressure;BME280_temperature;BME280_humidity;BME280_pressure;Samples;Min_cycle;Max_cycle;Signal;HPM_P1;HPM_P2
2021/11/22 00:02:15;;;;;;;21.53;12.67;;;7.80;99.90;;;;;;5012455;28;20273;-57
2021/11/22 00:04:42;;;;;;;20.93;13.43;;;7.70;99.90;;;;;;5012477;28;20231;-56
2021/11/22 00:07:11;;;;;;;21.97;13.30;;;7.60;99.90;;;;;;5012405;28;20290;-57
2021/11/22 00:09:38;;;;;;;21.93;12.30;;;7.60;99.90;;;;;;5012369;28;20227;-56
2021/11/22 00:12:06;;;;;;;25.57;13.40;;;7.70;99.90;;;;;;5012468;28;20207;-57
2021/11/22 00:14:33;;;;;;;19.40;12.07;;;7.70;99.90;;;;;;5012469;28;20199;-57
2021/11/22 00:17:00;;;;;;;21.60;12.93;;;7.70;99.90;;;;;;5012293;28;20622;-57
2021/11/22 00:19:27;;;;;;;20.07;12.83;;;7.80;99.90;;;;;;5011875;28;20222;-57
2021/11/22 00:21:54;;;;;;;23.23;13.03;;;7.80;99.90;;;;;;5032353;23;20234;-61
2021/11/22 00:24:22;;;;;;;24.17;13.80;;;7.80;99.90;;;;;;5006923;28;20656;-61
2021/11/22 00:26:49;;;;;;;22.70;13.50;;;7.80;99.90;;;;;;5012137;28;20211;-61
2021/11/22 00:29:15;;;;;;;21.63;12.53;;;7.90;99.90;;;;;;5012174;28;20207;-59
2021/11/22 00:31:46;;;;;;;23.83;14.07;;;7.90;99.90;;;;;;5012096;28;20238;-61
2021/11/22 00:34:13;;;;;;;20.87;12.50;;;8.00;99.90;;;;;;5012190;28;20203;-61
2021/11/22 00:36:39;;;;;;;23.50;14.47;;;8.00;99.90;;;;;;5012401;28;20229;-61
2021/11/22 00:39:06;;;;;;;20.43;13.10;;;8.10;99.90;;;;;;5012143;28;20207;-64
2021/11/22 00:41:34;;;;;;;22.10;12.63;;;8.10;99.90;;;;;;5012193;28;20233;-61
2021/11/22 00:44:01;;;;;;;23.53;13.83;;;8.20;99.90;;;;;;5012181;28;20273;-62
2021/11/22 00:46:28;;;;;;;18.60;12.00;;;8.20;99.90;;;;;;5011998;28;20560;-62
2021/11/22 00:48:55;;;;;;;21.07;12.83;;;8.20;99.90;;;;;;5011672;28;20683;-62
2021/11/22 00:51:21;;;;;;;20.50;12.33;;;8.20;99.90;;;;;;5012116;28;20226;-62
2021/11/22 00:53:48;;;;;;;22.70;13.70;;;8.20;99.90;;;;;;5011926;28;20553;-61
2021/11/22 00:56:17;;;;;;;23.93;13.53;;;8.20;99.90;;;;;;5013746;28;20218;-62
2021/11/22 00:58:45;;;;;;;22.67;13.30;;;8.20;99.90;;;;;;5015672;28;20223;-60
2021/11/22 01:01:12;;;;;;;25.27;15.37;;;8.10;99.90;;;;;;5015689;28;20726;-61
2021/11/22 01:03:39;;;;;;;24.73;13.90;;;8.10;99.90;;;;;;5015500;28;20211;-62
2021/11/22 01:06:06;;;;;;;23.47;14.03;;;8.10;99.90;;;;;;5015570;28;20211;-62
2021/11/22 01:08:32;;;;;;;21.80;13.50;;;8.10;99.90;;;;;;5015591;28;20214;-62
2021/11/22 01:10:59;;;;;;;24.33;14.43;;;8.10;99.90;;;;;;5015550;28;20285;-62
2021/11/22 01:13:26;;;;;;;20.43;13.30;;;8.10;99.90;;;;;;5015688;28;20210;-62
2021/11/22 01:15:54;;;;;;;23.03;13.33;;;8.20;99.90;;;;;;5015455;28;20210;-62
2021/11/22 01:18:21;;;;;;;25.93;14.53;;;8.20;99.90;;;;;;5015804;28;20214;-62
2021/11/22 01:20:48;;;;;;;23.67;14.03;;;8.30;99.90;;;;;;5015193;28;20246;-61
2021/11/22 01:23:15;;;;;;;24.87;14.57;;;8.40;99.90;;;;;;5015464;28;20211;-60
2021/11/22 01:25:44;;;;;;;23.03;13.87;;;8.40;99.90;;;;;;5015255;28;20231;-60
2021/11/22 01:28:11;;;;;;;22.83;13.53;;;8.50;99.90;;;;;;5015304;28;20203;-60
2021/11/22 01:30:39;;;;;;;25.50;13.67;;;8.50;99.90;;;;;;5014861;28;20260;-62
2021/11/22 01:33:07;;;;;;;23.07;13.43;;;8.60;99.90;;;;;;5015324;28;20584;-62
2021/11/22 01:35:34;;;;;;;23.60;14.30;;;8.60;99.90;;;;;;5015233;28;20210;-62
2021/11/22 01:38:01;;;;;;;24.43;14.37;;;8.60;99.90;;;;;;5015186;28;20229;-62
2021/11/22 01:40:28;;;;;;;20.20;13.20;;;8.60;99.90;;;;;;5014841;28;20353;-62
2021/11/22 01:42:56;;;;;;;23.30;13.50;;;8.60;99.90;;;;;;5015015;28;20289;-61
2021/11/22 01:45:24;;;;;;;24.37;14.10;;;8.60;99.90;;;;;;5014851;28;20254;-62
2021/11/22 01:47:51;;;;;;;21.90;13.37;;;8.50;99.90;;;;;;5014885;28;20211;-62
2021/11/22 01:50:22;;;;;;;24.47;13.83;;;8.50;99.90;;;;;;5014901;28;20226;-60
2021/11/22 01:52:51;;;;;;;23.90;14.43;;;8.30;99.90;;;;;;5014973;28;20223;-62
2021/11/22 01:55:20;;;;;;;21.17;13.27;;;8.30;99.90;;;;;;5014985;28;20212;-62
2021/11/22 01:57:47;;;;;;;23.10;14.17;;;8.30;99.90;;;;;;5014636;28;20211;-60
2021/11/22 02:00:20;;;;;;;24.37;14.40;;;7.90;99.90;;;;;;5014627;28;20227;-61
2021/11/22 02:02:47;;;;;;;25.63;13.97;;;7.60;99.90;;;;;;5014951;28;20206;-62
2021/11/22 02:05:14;;;;;;;26.33;13.87;;;7.30;99.90;;;;;;5014610;28;20910;-60
2021/11/22 02:07:43;;;;;;;22.60;13.10;;;7.20;99.90;;;;;;5013949;28;20207;-60
2021/11/22 02:10:10;;;;;;;24.93;14.23;;;7.20;99.90;;;;;;5014199;28;20230;-61
2021/11/22 02:12:37;;;;;;;24.47;14.60;;;7.10;99.90;;;;;;5014395;28;20676;-61
2021/11/22 02:15:07;;;;;;;27.80;14.27;;;6.90;99.90;;;;;;5014611;28;20253;-60
2021/11/22 02:17:36;;;;;;;25.87;14.50;;;6.90;99.90;;;;;;5014386;28;20207;-61
2021/11/22 02:20:07;;;;;;;28.70;14.43;;;7.00;99.90;;;;;;5014150;28;20302;-61
2021/11/22 02:22:35;;;;;;;25.00;14.50;;;7.10;99.90;;;;;;5014346;28;20215;-61
2021/11/22 02:25:04;;;;;;;24.43;14.23;;;7.00;99.90;;;;;;5014441;28;20231;-61
2021/11/22 02:27:32;;;;;;;26.63;14.63;;;6.90;99.90;;;;;;5014084;28;20211;-62
2021/11/22 02:29:59;;;;;;;24.13;14.10;;;7.00;99.90;;;;;;5014019;28;20258;-62
2021/11/22 02:32:25;;;;;;;24.47;13.57;;;7.30;99.90;;;;;;5014044;28;20629;-60
2021/11/22 02:34:52;;;;;;;24.20;14.33;;;7.50;99.90;;;;;;5014074;28;20210;-61
2021/11/22 02:37:22;;;;;;;22.73;13.77;;;7.60;99.90;;;;;;5013774;28;20207;-60
2021/11/22 02:39:49;;;;;;;24.90;14.33;;;7.70;99.90;;;;;;5013819;28;20286;-62
2021/11/22 02:42:23;;;;;;;25.07;14.23;;;7.80;99.90;;;;;;5013994;28;20218;-59
2021/11/22 02:44:50;;;;;;;22.23;13.77;;;7.90;99.90;;;;;;5014244;28;20226;-62
2021/11/22 02:47:17;;;;;;;23.57;14.20;;;7.90;99.90;;;;;;5013788;28;20285;-60
2021/11/22 02:49:44;;;;;;;25.60;13.33;;;7.60;99.90;;;;;;5013400;28;20710;-60
2021/11/22 02:52:11;;;;;;;22.43;13.60;;;7.70;99.90;;;;;;5013853;28;20235;-60
2021/11/22 02:54:39;;;;;;;24.73;14.50;;;7.60;99.90;;;;;;5013627;28;20569;-60
2021/11/22 02:57:06;;;;;;;27.33;14.37;;;7.50;99.90;;;;;;5013533;28;20611;-60
2021/11/22 02:59:33;;;;;;;26.83;14.10;;;7.50;99.90;;;;;;5013384;28;20265;-61
2021/11/22 03:01:59;;;;;;;26.60;14.40;;;7.30;99.90;;;;;;5013474;28;20227;-60
2021/11/22 03:04:32;;;;;;;26.70;14.30;;;7.40;99.90;;;;;;5013354;28;20203;-60
2021/11/22 03:06:59;;;;;;;26.10;14.87;;;7.60;99.90;;;;;;5013599;28;20280;-61
2021/11/22 03:09:25;;;;;;;27.07;14.37;;;7.70;99.90;;;;;;5013359;28;20246;-60
2021/11/22 03:11:54;;;;;;;28.03;15.50;;;7.90;99.90;;;;;;5013372;28;20277;-61
2021/11/22 03:14:21;;;;;;;28.17;15.40;;;7.90;99.90;;;;;;5013297;28;20210;-62
2021/11/22 03:16:48;;;;;;;30.83;16.07;;;7.90;99.90;;;;;;5013053;28;20674;-60
2021/11/22 03:19:14;;;;;;;26.20;15.77;;;8.00;99.90;;;;;;5012339;28;20215;-61
2021/11/22 03:21:42;;;;;;;31.07;16.90;;;8.10;99.90;;;;;;5013130;28;20305;-61
2021/11/22 03:24:09;;;;;;;27.57;16.17;;;8.20;99.90;;;;;;5013301;28;20238;-60
2021/11/22 03:26:35;;;;;;;28.87;16.63;;;8.30;99.90;;;;;;5013028;28;20231;-61
2021/11/22 03:29:04;;;;;;;25.40;15.17;;;8.20;99.90;;;;;;5012972;28;20261;-61
2021/11/22 03:31:33;;;;;;;24.90;15.17;;;8.30;99.90;;;;;;5012872;28;20234;-60
2021/11/22 03:34:01;;;;;;;27.53;15.90;;;8.30;99.90;;;;;;5013130;28;20361;-60
2021/11/22 03:36:29;;;;;;;27.00;15.40;;;8.40;99.90;;;;;;5012986;28;20202;-61
2021/11/22 03:38:56;;;;;;;26.37;14.87;;;8.30;99.90;;;;;;5012729;28;20258;-61
2021/11/22 03:41:24;;;;;;;28.40;14.50;;;8.20;99.90;;;;;;5012748;28;20238;-60
2021/11/22 03:43:57;;;;;;;28.07;15.00;;;8.00;99.90;;;;;;5012615;28;20226;-60
2021/11/22 03:46:25;;;;;;;27.60;15.10;;;7.70;99.90;;;;;;5012847;28;20241;-60
2021/11/22 03:48:53;;;;;;;29.40;15.73;;;7.70;99.90;;;;;;5012658;28;20269;-60
2021/11/22 03:51:21;;;;;;;25.43;15.37;;;7.90;99.90;;;;;;5012473;28;20223;-60
2021/11/22 03:53:47;;;;;;;25.63;15.50;;;8.00;99.90;;;;;;5012591;28;20213;-62
2021/11/22 03:56:14;;;;;;;25.17;15.13;;;8.20;99.90;;;;;;5012512;28;20207;-62
2021/11/22 03:58:41;;;;;;;31.73;21.00;;;8.30;99.90;;;;;;5012386;28;20213;-60
2021/11/22 04:01:08;;;;;;;25.40;15.20;;;8.40;99.90;;;;;;5012424;28;20591;-60
2021/11/22 04:03:36;;;;;;;24.73;14.33;;;8.50;99.90;;;;;;5012364;28;20690;-60
2021/11/22 04:06:03;;;;;;;24.67;14.20;;;8.50;99.90;;;;;;5012351;28;20234;-62
2021/11/22 04:08:29;;;;;;;22.80;13.13;;;8.40;99.90;;;;;;5012309;28;20710;-62
2021/11/22 04:10:56;;;;;;;24.13;14.13;;;8.30;99.90;;;;;;5012008;28;20714;-60
2021/11/22 04:13:23;;;;;;;23.73;15.10;;;8.20;99.90;;;;;;5012218;28;20675;-61
2021/11/22 04:15:50;;;;;;;23.53;14.63;;;8.10;99.90;;;;;;5012420;28;20203;-61
2021/11/22 04:18:17;;;;;;;21.07;13.73;;;7.90;99.90;;;;;;5012322;28;20207;-61
2021/11/22 04:20:45;;;;;;;23.30;14.20;;;7.70;99.90;;;;;;5012562;28;20513;-61
2021/11/22 04:23:12;;;;;;;25.87;14.23;;;7.70;99.90;;;;;;5012971;28;20304;-61
2021/11/22 04:25:39;;;;;;;20.33;12.97;;;7.70;99.90;;;;;;5012650;28;20218;-61
2021/11/22 04:28:10;;;;;;;21.47;13.70;;;7.70;99.90;;;;;;5012473;28;20221;-60
2021/11/22 04:30:37;;;;;;;21.33;13.40;;;7.70;99.90;;;;;;5014013;28;20238;-61
2021/11/22 04:33:04;;;;;;;17.47;13.03;;;7.70;99.90;;;;;;5018847;28;20215;-61
2021/11/22 04:35:31;;;;;;;20.70;13.40;;;7.60;99.90;;;;;;5018874;28;20242;-61
2021/11/22 04:38:00;;;;;;;22.77;13.90;;;7.60;99.90;;;;;;5018516;28;20620;-60
2021/11/22 04:40:26;;;;;;;17.17;12.20;;;7.70;99.90;;;;;;5018596;28;20230;-60
2021/11/22 04:42:53;;;;;;;17.37;12.97;;;7.80;99.90;;;;;;5018701;28;20261;-60
2021/11/22 04:45:22;;;;;;;21.57;13.90;;;8.00;99.90;;;;;;5018658;28;20230;-61
2021/11/22 04:47:51;;;;;;;16.97;12.37;;;8.00;99.90;;;;;;5018452;28;20272;-62
2021/11/22 04:50:19;;;;;;;19.63;12.97;;;7.90;99.90;;;;;;5018349;28;20227;-62
2021/11/22 04:52:48;;;;;;;17.30;12.60;;;7.80;99.90;;;;;;5018458;28;20214;-62
2021/11/22 04:55:17;;;;;;;19.27;12.97;;;7.80;99.90;;;;;;5018931;28;20285;-60
2021/11/22 04:57:45;;;;;;;18.40;12.47;;;7.80;99.90;;;;;;5018517;28;20207;-61
2021/11/22 05:00:14;;;;;;;20.07;13.30;;;7.90;99.90;;;;;;5018647;28;20272;-61
2021/11/22 05:02:42;;;;;;;20.10;13.50;;;7.90;99.90;;;;;;5018693;28;20207;-61
2021/11/22 05:05:10;;;;;;;18.80;13.20;;;7.90;99.90;;;;;;5018250;28;20218;-62
2021/11/22 05:07:38;;;;;;;21.63;14.53;;;7.70;99.90;;;;;;5018516;28;20214;-60
2021/11/22 05:10:07;;;;;;;23.10;15.03;;;7.70;99.90;;;;;;5018209;28;20210;-61
2021/11/22 05:12:35;;;;;;;22.70;13.87;;;7.80;99.90;;;;;;5018443;28;20203;-61
2021/11/22 05:15:02;;;;;;;22.70;14.00;;;8.00;99.90;;;;;;5018755;28;20207;-62
2021/11/22 05:17:28;;;;;;;22.60;15.27;;;8.20;99.90;;;;;;5018686;28;20253;-61
2021/11/22 05:19:55;;;;;;;18.00;13.93;;;8.20;99.90;;;;;;5017857;28;20210;-61
2021/11/22 05:22:24;;;;;;;23.77;14.17;;;8.40;99.90;;;;;;5018515;28;20214;-62
2021/11/22 05:24:51;;;;;;;18.73;13.33;;;8.50;99.90;;;;;;5018379;28;20207;-61
2021/11/22 05:27:18;;;;;;;18.80;12.90;;;8.50;99.90;;;;;;5018185;28;20210;-61
2021/11/22 05:29:47;;;;;;;20.37;13.97;;;8.50;99.90;;;;;;5017958;28;20217;-61
2021/11/22 05:32:16;;;;;;;19.57;12.97;;;8.50;99.90;;;;;;5018494;28;20213;-61
2021/11/22 05:34:42;;;;;;;17.57;12.20;;;8.40;99.90;;;;;;5018079;28;20663;-61
2021/11/22 05:37:10;;;;;;;20.50;13.60;;;8.40;99.90;;;;;;5018114;28;20210;-62
2021/11/22 05:39:37;;;;;;;17.50;12.60;;;8.50;99.90;;;;;;5017972;28;20203;-61
2021/11/22 05:42:04;;;;;;;17.93;12.50;;;8.20;99.90;;;;;;5016250;28;20773;-62
2021/11/22 05:44:32;;;;;;;18.63;13.10;;;8.10;99.90;;;;;;5014967;28;20577;-61
2021/11/22 05:47:00;;;;;;;18.80;14.03;;;7.90;99.90;;;;;;5014745;28;20227;-62
2021/11/22 05:49:29;;;;;;;18.47;12.57;;;7.90;99.90;;;;;;5014850;28;20269;-61
2021/11/22 05:51:56;;;;;;;17.30;12.63;;;7.80;99.90;;;;;;5014869;28;20285;-60
2021/11/22 05:54:24;;;;;;;17.47;12.63;;;7.60;99.90;;;;;;5014986;28;20211;-61
2021/11/22 05:56:51;;;;;;;16.63;12.23;;;7.40;99.90;;;;;;5014719;28;20234;-61
2021/11/22 05:59:18;;;;;;;17.50;12.50;;;7.30;99.90;;;;;;5014491;28;20206;-62
2021/11/22 06:01:45;;;;;;;15.50;12.23;;;7.40;99.90;;;;;;5014670;28;20258;-63
2021/11/22 06:04:13;;;;;;;17.20;12.07;;;7.50;99.90;;;;;;5014667;28;20211;-62
2021/11/22 06:06:39;;;;;;;15.33;12.13;;;7.40;99.90;;;;;;5014542;28;20226;-61
2021/11/22 06:09:06;;;;;;;17.53;12.07;;;7.30;99.90;;;;;;5014654;28;20207;-61
2021/11/22 06:11:33;;;;;;;16.50;11.47;;;7.20;99.90;;;;;;5014749;28;20234;-61
2021/11/22 06:13:59;;;;;;;15.67;11.80;;;7.00;99.90;;;;;;5014731;28;20210;-62
2021/11/22 06:16:26;;;;;;;17.50;12.60;;;7.00;99.90;;;;;;5014401;28;20207;-61
2021/11/22 06:18:53;;;;;;;16.67;12.40;;;7.10;99.90;;;;;;5014564;28;20210;-62
2021/11/22 06:21:21;;;;;;;16.67;12.13;;;7.10;99.90;;;;;;5037188;23;20578;-59
2021/11/22 06:23:48;;;;;;;17.33;11.77;;;7.20;99.90;;;;;;5006255;28;20253;-59
2021/11/22 06:26:15;;;;;;;15.53;11.87;;;7.20;99.90;;;;;;5014738;28;20721;-59
2021/11/22 06:28:41;;;;;;;18.00;12.33;;;7.20;99.90;;;;;;5014506;28;20210;-59
2021/11/22 06:31:08;;;;;;;17.40;13.33;;;7.30;99.90;;;;;;5014424;28;20231;-59
2021/11/22 06:33:35;;;;;;;16.00;11.97;;;7.50;99.90;;;;;;5014963;28;20207;-60
2021/11/22 06:36:02;;;;;;;20.17;13.57;;;7.60;99.90;;;;;;5015044;28;20239;-60
2021/11/22 06:38:32;;;;;;;15.93;12.57;;;7.70;99.90;;;;;;5014798;28;20218;-60
2021/11/22 06:40:59;;;;;;;17.30;12.47;;;7.60;99.90;;;;;;5014043;28;20234;-60
2021/11/22 06:43:26;;;;;;;16.63;11.73;;;7.60;99.90;;;;;;5014414;28;20207;-59
2021/11/22 06:45:53;;;;;;;19.70;14.70;;;7.60;99.90;;;;;;5014579;28;20915;-59
2021/11/22 06:48:20;;;;;;;20.20;14.80;;;7.60;99.90;;;;;;5014776;28;20273;-60
2021/11/22 06:50:47;;;;;;;19.27;12.63;;;7.50;99.90;;;;;;5013869;28;20744;-60
2021/11/22 06:53:13;;;;;;;15.73;11.67;;;7.50;99.90;;;;;;5014019;28;20217;-60
2021/11/22 06:55:41;;;;;;;16.90;11.60;;;7.30;99.90;;;;;;5014231;28;20206;-59
2021/11/22 06:58:08;;;;;;;13.87;11.00;;;7.20;99.90;;;;;;5014226;28;20593;-60
2021/11/22 07:00:35;;;;;;;15.97;12.03;;;7.20;99.90;;;;;;5013810;28;20245;-60
2021/11/22 07:03:01;;;;;;;17.40;10.87;;;7.10;99.90;;;;;;5015443;28;20257;-60
2021/11/22 07:05:29;;;;;;;15.10;10.33;;;7.00;99.90;;;;;;5014361;28;20254;-60
2021/11/22 07:07:55;;;;;;;13.97;10.60;;;6.90;99.90;;;;;;5014749;28;20275;-60
2021/11/22 07:10:23;;;;;;;14.93;10.97;;;6.90;99.90;;;;;;5013851;28;20211;-60
2021/11/22 07:12:51;;;;;;;14.77;10.57;;;7.10;99.90;;;;;;5014395;28;20210;-59
2021/11/22 07:15:21;;;;;;;14.03;10.50;;;7.40;99.90;;;;;;5014153;28;20210;-60
2021/11/22 07:17:48;;;;;;;16.47;11.47;;;7.60;99.90;;;;;;5013783;28;20229;-60
2021/11/22 07:20:15;;;;;;;15.23;11.00;;;7.90;99.90;;;;;;5013068;28;20203;-60
2021/11/22 07:22:41;;;;;;;13.93;9.73;;;8.10;99.90;;;;;;5013843;28;20207;-60
2021/11/22 07:25:09;;;;;;;14.10;10.03;;;8.00;99.90;;;;;;5013899;28;20675;-60
2021/11/22 07:27:35;;;;;;;12.37;9.57;;;7.80;99.90;;;;;;5013753;28;20230;-60
2021/11/22 07:30:05;;;;;;;13.57;10.27;;;7.60;99.90;;;;;;5013885;28;20215;-60
2021/11/22 07:32:32;;;;;;;12.90;9.80;;;7.40;99.90;;;;;;5015758;28;20399;-60
2021/11/22 07:34:59;;;;;;;11.53;9.50;;;7.40;99.90;;;;;;5013330;28;20261;-60
2021/11/22 07:37:27;;;;;;;13.03;10.50;;;7.60;99.90;;;;;;5013283;28;20234;-60
2021/11/22 07:39:54;;;;;;;11.93;9.33;;;7.80;99.90;;;;;;5013140;28;20250;-60
2021/11/22 07:42:21;;;;;;;12.77;9.13;;;7.80;99.90;;;;;;5013068;28;20231;-60
2021/11/22 07:44:49;;;;;;;11.30;9.23;;;7.90;99.90;;;;;;5013140;28;20253;-60
2021/11/22 07:47:18;;;;;;;12.40;9.53;;;8.10;99.90;;;;;;5012937;28;20222;-60
2021/11/22 07:49:45;;;;;;;11.67;9.00;;;8.30;99.90;;;;;;5012648;28;20606;-61
2021/11/22 07:52:11;;;;;;;12.30;9.10;;;8.50;99.90;;;;;;5013415;28;20227;-60
2021/11/22 07:54:38;;;;;;;11.23;8.80;;;8.60;99.90;;;;;;5013588;28;20222;-60
2021/11/22 07:57:05;;;;;;;12.43;8.63;;;8.70;99.90;;;;;;5013464;28;20708;-60
2021/11/22 07:59:32;;;;;;;11.17;8.60;;;8.70;99.90;;;;;;5012522;28;20213;-60
2021/11/22 08:02:00;;;;;;;12.23;8.67;;;8.90;99.90;;;;;;5012965;28;20227;-60
2021/11/22 08:04:28;;;;;;;12.43;8.50;;;8.80;99.90;;;;;;5013008;28;20679;-60
2021/11/22 08:06:59;;;;;;;10.47;7.83;;;8.80;99.90;;;;;;5012087;28;20608;-65
2021/11/22 08:09:28;;;;;;;12.00;9.03;;;8.80;99.90;;;;;;5009948;28;20207;-67
2021/11/22 08:12:25;;;;;;;10.93;7.67;;;8.90;99.90;;;;;;5016531;28;20715;-62
2021/11/22 08:14:52;;;;;;;8.80;7.13;;;8.90;99.90;;;;;;5021946;28;20218;-64
2021/11/22 08:17:19;;;;;;;9.40;7.23;;;8.90;99.90;;;;;;5016928;28;20298;-65
2021/11/22 08:19:47;;;;;;;9.13;7.47;;;8.90;99.90;;;;;;5013644;28;20207;-61
2021/11/22 08:22:14;;;;;;;10.33;8.03;;;8.90;99.90;;;;;;5012452;28;20250;-61
2021/11/22 08:24:41;;;;;;;9.73;8.23;;;8.80;99.90;;;;;;5013397;28;20261;-60
2021/11/22 08:27:08;;;;;;;9.43;7.50;;;8.50;99.90;;;;;;5012142;28;20224;-60
2021/11/22 08:29:35;;;;;;;9.13;7.07;;;8.30;99.90;;;;;;5012229;28;20211;-60
2021/11/22 08:32:01;;;;;;;9.17;7.20;;;8.00;99.90;;;;;;5012254;28;20222;-60
2021/11/22 08:34:28;;;;;;;10.50;6.83;;;8.10;99.90;;;;;;5012867;28;20211;-60
2021/11/22 08:36:56;;;;;;;7.67;6.37;;;8.30;99.90;;;;;;5012660;28;20214;-58
2021/11/22 08:39:23;;;;;;;8.23;6.47;;;8.30;99.90;;;;;;5011960;28;20223;-58
2021/11/22 08:41:49;;;;;;;8.80;7.07;;;8.30;99.90;;;;;;5012085;28;20230;-59
2021/11/22 08:44:16;;;;;;;9.83;6.77;;;8.40;99.90;;;;;;5012308;28;20211;-62
2021/11/22 08:46:46;;;;;;;8.27;6.20;;;8.70;99.90;;;;;;5012114;28;20227;-57
2021/11/22 08:49:13;;;;;;;8.70;6.17;;;8.70;99.90;;;;;;5011944;28;20207;-58
2021/11/22 08:51:40;;;;;;;7.67;6.17;;;8.80;99.90;;;;;;5011855;28;20230;-57
2021/11/22 08:54:08;;;;;;;7.37;6.23;;;8.80;99.90;;;;;;5011669;28;20228;-57
2021/11/22 08:56:36;;;;;;;9.20;6.13;;;8.80;99.90;;;;;;5011525;28;20210;-56
2021/11/22 08:59:03;;;;;;;7.27;5.73;;;8.90;99.90;;;;;;5011767;28;20544;-58
2021/11/22 09:01:30;;;;;;;8.27;6.40;;;8.90;99.90;;;;;;5011284;28;20718;-57
2021/11/22 09:03:58;;;;;;;8.17;5.57;;;8.90;99.90;;;;;;5011732;28;20578;-64
2021/11/22 09:06:25;;;;;;;7.53;6.07;;;9.10;99.90;;;;;;5012145;28;20247;-63
2021/11/22 09:08:52;;;;;;;8.57;6.10;;;9.10;99.90;;;;;;5012118;28;20207;-56
2021/11/22 09:11:20;;;;;;;7.27;6.30;;;9.10;99.90;;;;;;5011619;28;20230;-57
2021/11/22 09:13:47;;;;;;;9.90;5.93;;;9.10;99.90;;;;;;5012187;28;20207;-56
2021/11/22 09:16:14;;;;;;;7.80;6.40;;;9.00;99.90;;;;;;5011943;28;20607;-56
2021/11/22 09:18:41;;;;;;;10.13;6.13;;;9.20;99.90;;;;;;5014095;28;20210;-56
2021/11/22 09:21:08;;;;;;;9.27;6.50;;;9.50;99.90;;;;;;5014957;28;20235;-56
2021/11/22 09:23:34;;;;;;;9.33;5.80;;;9.80;99.90;;;;;;5015118;28;20215;-56
2021/11/22 09:26:02;;;;;;;7.07;6.10;;;9.80;99.90;;;;;;5015446;28;20560;-56
2021/11/22 09:28:30;;;;;;;7.03;5.73;;;9.90;99.90;;;;;;5015139;28;20289;-56
2021/11/22 09:30:56;;;;;;;6.67;5.13;;;9.90;99.90;;;;;;5015011;28;20223;-56
2021/11/22 09:33:23;;;;;;;7.60;5.50;;;10.00;99.90;;;;;;5015032;28;20620;-57
2021/11/22 09:35:50;;;;;;;6.83;4.77;;;10.10;99.90;;;;;;5015106;28;20210;-57
2021/11/22 09:38:17;;;;;;;7.40;5.03;;;10.00;99.90;;;;;;5014980;28;20210;-57
2021/11/22 09:40:43;;;;;;;7.77;5.40;;;10.00;99.90;;;;;;5014930;28;20321;-56
2021/11/22 09:43:10;;;;;;;7.03;4.70;;;9.90;99.90;;;;;;5014865;28;20687;-57
2021/11/22 09:45:39;;;;;;;7.07;5.23;;;9.90;99.90;;;;;;5015040;28;20675;-56
2021/11/22 09:48:06;;;;;;;7.10;5.10;;;9.80;99.90;;;;;;5014680;28;20602;-57
2021/11/22 09:50:33;;;;;;;9.03;5.13;;;9.70;99.90;;;;;;5014097;28;20227;-57
2021/11/22 09:53:01;;;;;;;7.47;5.00;;;9.60;99.90;;;;;;5014703;28;20554;-56
2021/11/22 09:55:30;;;;;;;7.63;5.50;;;9.60;99.90;;;;;;5015226;28;20207;-57
2021/11/22 09:57:57;;;;;;;7.23;4.90;;;9.60;99.90;;;;;;5014818;28;20290;-57
2021/11/22 10:00:24;;;;;;;7.83;4.93;;;9.60;99.90;;;;;;5014335;28;20328;-57
2021/11/22 10:02:56;;;;;;;5.40;4.33;;;9.60;99.90;;;;;;5014641;28;20235;-57
2021/11/22 10:05:29;;;;;;;7.23;4.43;;;9.70;99.90;;;;;;5014591;28;20214;-56
2021/11/22 10:08:09;;;;;;;9.53;5.30;;;9.60;99.90;;;;;;5014787;28;20233;-57
2021/11/22 10:10:39;;;;;;;9.43;4.60;;;9.70;99.90;;;;;;5014461;28;20234;-57
2021/11/22 10:13:21;;;;;;;6.63;4.70;;;9.80;99.90;;;;;;5015405;28;20218;-57
2021/11/22 10:15:48;;;;;;;6.80;4.17;;;9.90;99.90;;;;;;5014487;28;20217;-57
2021/11/22 10:18:21;;;;;;;7.20;4.50;;;9.90;99.90;;;;;;5014494;28;20207;-59
2021/11/22 10:20:49;;;;;;;7.03;4.73;;;9.80;99.90;;;;;;5014971;28;20592;-62
2021/11/22 10:23:22;;;;;;;6.10;4.40;;;9.80;99.90;;;;;;5014603;28;20214;-59
2021/11/22 10:25:50;;;;;;;7.33;4.90;;;9.90;99.90;;;;;;5014298;28;20214;-60
2021/11/22 10:28:19;;;;;;;5.93;4.50;;;10.10;99.90;;;;;;5013786;28;20594;-61
2021/11/22 10:30:49;;;;;;;8.27;4.73;;;10.20;99.90;;;;;;5014425;28;20242;-58
2021/11/22 10:33:18;;;;;;;7.87;4.97;;;10.30;99.90;;;;;;5014254;28;20577;-57
2021/11/22 10:35:48;;;;;;;8.13;4.37;;;10.40;99.90;;;;;;5014147;28;20261;-58
2021/11/22 10:38:16;;;;;;;7.17;4.33;;;10.30;99.90;;;;;;5014211;28;20203;-58
2021/11/22 10:40:46;;;;;;;6.23;4.30;;;10.20;99.90;;;;;;5013608;28;20656;-58
2021/11/22 10:43:13;;;;;;;7.93;4.50;;;10.10;99.90;;;;;;5013910;28;20609;-58
2021/11/22 10:45:42;;;;;;;6.43;4.40;;;9.90;99.90;;;;;;5013883;28;20217;-58
2021/11/22 10:48:21;;;;;;;6.53;4.40;;;9.90;99.90;;;;;;5013931;28;20230;-58
2021/11/22 10:51:00;;;;;;;6.57;4.30;;;10.00;99.90;;;;;;5013379;28;20231;-58
2021/11/22 10:53:32;;;;;;;6.23;4.03;;;10.00;99.90;;;;;;5013949;28;20206;-58
2021/11/22 10:56:00;;;;;;;6.23;4.70;;;9.90;99.90;;;;;;5013852;28;20291;-58
2021/11/22 10:58:48;;;;;;;7.77;4.80;;;9.80;99.90;;;;;;5013630;28;20214;-58
2021/11/22 11:01:38;;;;;;;7.80;4.70;;;9.60;99.90;;;;;;5012948;28;20227;-59
2021/11/22 11:04:13;;;;;;;7.77;4.30;;;9.60;99.90;;;;;;5013656;28;20276;-61
2021/11/22 11:06:47;;;;;;;8.63;5.40;;;9.40;99.90;;;;;;5013243;28;20202;-62
2021/11/22 11:09:24;;;;;;;6.73;4.70;;;9.30;99.90;;;;;;5013989;28;20214;-61
2021/11/22 11:11:56;;;;;;;7.33;4.20;;;9.30;99.90;;;;;;5013576;28;20230;-60
2021/11/22 11:14:25;;;;;;;7.60;4.03;;;9.20;99.90;;;;;;5013776;28;20207;-64
2021/11/22 11:16:53;;;;;;;8.07;4.60;;;9.20;99.90;;;;;;5014115;28;20675;-62
2021/11/22 11:19:20;;;;;;;5.60;4.50;;;9.20;99.90;;;;;;5003050;28;20454;-58
2021/11/22 11:21:50;;;;;;;7.40;4.57;;;9.10;99.90;;;;;;4973659;28;20240;-59
2021/11/22 11:24:18;;;;;;;7.80;5.20;;;9.10;99.90;;;;;;5002602;28;20589;-58
2021/11/22 11:26:48;;;;;;;5.47;4.30;;;9.20;99.90;;;;;;5013200;28;20299;-58
2021/11/22 11:29:15;;;;;;;8.73;4.60;;;9.20;99.90;;;;;;5012570;28;20663;-58
2021/11/22 11:31:41;;;;;;;5.17;4.00;;;9.20;99.90;;;;;;5012786;28;20230;-58
2021/11/22 11:34:10;;;;;;;9.07;4.80;;;9.10;99.90;;;;;;5013381;28;20207;-58
2021/11/22 11:36:57;;;;;;;8.10;4.17;;;9.10;99.90;;;;;;5012967;28;20261;-57
2021/11/22 11:39:51;;;;;;;5.83;4.33;;;9.20;99.90;;;;;;5012977;28;20691;-58
2021/11/22 11:42:33;;;;;;;8.13;4.50;;;9.10;99.90;;;;;;5012609;28;20235;-58
2021/11/22 11:45:06;;;;;;;7.70;5.13;;;9.10;99.90;;;;;;5012831;28;20211;-59
2021/11/22 11:47:41;;;;;;;8.43;4.57;;;9.00;99.90;;;;;;5012499;28;20703;-58
2021/11/22 11:50:22;;;;;;;8.70;4.30;;;9.10;99.90;;;;;;5012780;28;20206;-58
2021/11/22 11:52:58;;;;;;;6.17;3.73;;;9.10;99.90;;;;;;5012455;28;20213;-59
2021/11/22 11:55:26;;;;;;;5.77;3.60;;;9.20;99.90;;;;;;5012525;28;20206;-58
2021/11/22 11:58:14;;;;;;;8.17;5.90;;;9.30;99.90;;;;;;5012591;28;20341;-58
2021/11/22 12:00:51;;;;;;;7.87;5.83;;;9.20;99.90;;;;;;5012352;28;20234;-58
2021/11/22 12:03:18;;;;;;;5.10;3.53;;;9.30;99.90;;;;;;5012743;28;20242;-58
2021/11/22 12:05:46;;;;;;;4.07;3.43;;;9.20;99.90;;;;;;5012530;28;20207;-59
2021/11/22 12:08:24;;;;;;;5.33;3.20;;;9.10;99.90;;;;;;5012716;28;20305;-58
2021/11/22 12:10:52;;;;;;;6.20;4.37;;;8.90;99.90;;;;;;5012172;28;20277;-58
2021/11/22 12:13:20;;;;;;;6.87;3.63;;;8.80;99.90;;;;;;5012313;28;20682;-59
2021/11/22 12:15:48;;;;;;;7.30;3.80;;;8.60;99.90;;;;;;5012275;28;20211;-58
2021/11/22 12:18:28;;;;;;;4.33;3.40;;;8.70;99.90;;;;;;5012446;28;20210;-58
2021/11/22 12:21:07;;;;;;;5.80;3.67;;;8.70;99.90;;;;;;5012495;28;20292;-57
2021/11/22 12:23:47;;;;;;;6.40;4.00;;;8.70;99.90;;;;;;5012321;28;20214;-57
2021/11/22 12:26:15;;;;;;;4.90;3.40;;;8.80;99.90;;;;;;5012496;28;20247;-57
2021/11/22 12:28:48;;;;;;;4.63;3.30;;;8.80;99.90;;;;;;5012358;28;20706;-57
2021/11/22 12:31:18;;;;;;;3.70;3.30;;;8.80;99.90;;;;;;5012174;28;20253;-58
2021/11/22 12:33:49;;;;;;;5.43;3.33;;;8.80;99.90;;;;;;5012673;28;20265;-58
2021/11/22 12:36:41;;;;;;;4.93;2.80;;;8.90;99.90;;;;;;5012458;28;20291;-57
2021/11/22 12:39:13;;;;;;;3.80;3.20;;;8.90;99.90;;;;;;5012344;28;20583;-57
2021/11/22 12:41:42;;;;;;;6.80;3.53;;;8.90;99.90;;;;;;5012223;28;20231;-57
2021/11/22 12:44:11;;;;;;;5.30;3.10;;;9.00;99.90;;;;;;5012320;28;20211;-57
2021/11/22 12:46:56;;;;;;;4.50;3.10;;;9.10;99.90;;;;;;5012249;28;20218;-56
2021/11/22 12:49:33;;;;;;;6.27;3.40;;;9.20;99.90;;;;;;5012233;28;20618;-57
2021/11/22 12:52:21;;;;;;;4.67;2.93;;;9.20;99.90;;;;;;5013999;28;20237;-56